Terminal Aerodrome Forecast
Issued by NWS

Home | Current Version | Previous Version | Graphics & Text | Print | Product List | Glossary On
Versions: 1 2 3 4 5 6 7 8 9 10 11 12 13 14 15 16 17 18 19 20 21 22 23
000
FTUS43 KLSX 012300
TAFSUS
TAF
KSUS 012335Z 0200/0224 16008KT P6SM VCSH SCT060 BKN250
      TEMPO 0201/0203 27012G20KT 1SM +TSRA OVC030CB
     FM020500 17006KT 4SM SHRA VCTS OVC035CB
     FM021200 14007KT P6SM BKN040 OVC080=

USA.gov is the U.S. government's official web portal to all federal, state and local government web resources and services.